ADDS METAR Data INFO
IDs: Format: Raw Decoded Include TAF

Data at: 0032 UTC 23 Jun 2018

METAR for:KDLZ (Delaware Muni, OH, US)
Text:KDLZ 230015Z AUTO 09008KT 10SM SCT019 SCT029 SCT037 23/18 A2970 RMK AO2
Temperature: 23.0°C ( 73°F)
Dewpoint: 18.0°C ( 64°F) [RH = 73%]
Pressure (altimeter):29.70 inches Hg (1005.8 mb)
Winds:from the E (90 degrees) at 9 MPH (8 knots; 4.1 m/s)
Visibility:10 or more sm (16+ km)
Ceiling:at least 12,000 feet AGL
Clouds: scattered clouds at 1900 feet AGL, scattered clouds at 2900 feet AGL, scattered clouds at 3700 feet AGL
QC Flag:automated observation with no human augmentation